Time;durP1;ratioP1;P1;durP2;ratioP2;P2;SDS_P1;SDS_P2;PMS_P1;PMS_P2;Temp;Humidity;BMP_temperature;BMP_pressure;BME280_temperature;BME280_humidity;BME280_pressure;Samples;Min_cycle;Max_cycle;Signal;HPM_P1;HPM_P2
2022/06/17 00:01:52;;;;;;;62.78;40.20;;;26.20;99.90;;;;;;5072481;28;20494;-69
2022/06/17 00:04:18;;;;;;;58.90;42.45;;;26.20;99.90;;;;;;5072461;28;20028;-68
2022/06/17 00:06:51;;;;;;;60.80;42.70;;;26.20;99.90;;;;;;5092960;28;20012;-69
2022/06/17 00:09:21;;;;;;;63.08;41.38;;;26.30;99.90;;;;;;5093016;28;20031;-68
2022/06/17 00:11:48;;;;;;;58.17;42.05;;;26.40;99.90;;;;;;5088544;28;20067;-69
2022/06/17 00:14:19;;;;;;;49.13;33.47;;;26.30;99.90;;;;;;5070689;28;20016;-68
2022/06/17 00:16:46;;;;;;;42.75;29.40;;;26.30;99.90;;;;;;5072484;28;20028;-69
2022/06/17 00:19:14;;;;;;;38.92;25.92;;;26.30;99.90;;;;;;5072453;28;20055;-68
2022/06/17 00:21:44;;;;;;;39.28;24.17;;;26.30;99.90;;;;;;5062973;28;20040;-68
2022/06/17 00:24:22;;;;;;;46.97;28.40;;;26.30;99.90;;;;;;5072006;28;20116;-69
2022/06/17 00:26:50;;;;;;;39.90;28.52;;;26.20;99.90;;;;;;5072501;28;20020;-68
2022/06/17 00:29:21;;;;;;;40.85;30.70;;;26.30;99.90;;;;;;5072342;28;20040;-68
2022/06/17 00:31:48;;;;;;;40.22;29.50;;;26.30;99.90;;;;;;5072815;28;20044;-68
2022/06/17 00:34:15;;;;;;;49.90;35.20;;;26.30;99.90;;;;;;5071870;28;20089;-69
2022/06/17 00:36:43;;;;;;;80.00;53.72;;;26.30;99.90;;;;;;5072286;28;20024;-68
2022/06/17 00:39:22;;;;;;;54.50;34.63;;;26.30;99.90;;;;;;5072479;28;20043;-68
2022/06/17 00:41:53;;;;;;;43.10;33.25;;;26.30;99.90;;;;;;5075151;28;20056;-68
2022/06/17 00:44:38;;;;;;;39.05;25.65;;;26.30;99.90;;;;;;5075457;28;20020;-68
2022/06/17 00:47:26;;;;;;;46.28;27.40;;;26.40;99.90;;;;;;5076049;28;20024;-69
2022/06/17 00:50:22;;;;;;;38.72;26.70;;;26.40;99.90;;;;;;5069929;28;20036;-69
2022/06/17 00:53:15;;;;;;;41.22;25.88;;;26.40;99.90;;;;;;5074811;28;20036;-69
2022/06/17 00:55:57;;;;;;;38.42;25.83;;;26.40;99.90;;;;;;5077209;28;20029;-69
2022/06/17 00:58:45;;;;;;;40.55;26.50;;;26.40;99.90;;;;;;5075806;28;20041;-69
2022/06/17 01:01:12;;;;;;;36.40;25.52;;;26.40;99.90;;;;;;5075704;28;20190;-67
2022/06/17 01:03:39;;;;;;;39.55;27.92;;;26.50;99.90;;;;;;5075664;28;20023;-65
2022/06/17 01:06:09;;;;;;;37.72;26.40;;;26.50;99.90;;;;;;5096346;28;20018;-65
2022/06/17 01:11:32;;;;;;;42.25;24.83;;;26.50;99.90;;;;;;5074981;28;20078;-66
2022/06/17 01:14:01;;;;;;;40.50;27.35;;;26.50;99.90;;;;;;5075234;28;20016;-65
2022/06/17 01:16:33;;;;;;;40.17;27.17;;;26.60;99.90;;;;;;5074321;28;20048;-65
2022/06/17 01:19:05;;;;;;;38.17;29.20;;;26.60;99.90;;;;;;5068364;28;20028;-65
2022/06/17 01:21:38;;;;;;;;;;;26.60;99.90;;;;;;5068135;28;20075;-64
2022/06/17 01:24:08;;;;;;;41.00;28.38;;;26.60;99.90;;;;;;5069951;28;19908;-65
2022/06/17 01:26:36;;;;;;;40.10;27.98;;;26.60;99.90;;;;;;5071300;28;20028;-65
2022/06/17 01:29:06;;;;;;;37.13;28.33;;;26.60;99.90;;;;;;5073609;28;20548;-65
2022/06/17 01:31:33;;;;;;;40.65;29.50;;;26.70;99.90;;;;;;5073077;28;20052;-64
2022/06/17 01:33:59;;;;;;;39.67;30.02;;;26.70;99.90;;;;;;5072894;28;20048;-65
2022/06/17 01:36:29;;;;;;;43.60;30.63;;;26.80;99.90;;;;;;5075303;28;20040;-65
2022/06/17 01:38:58;;;;;;;41.33;32.28;;;26.80;99.90;;;;;;5074868;28;20028;-65
2022/06/17 01:41:28;;;;;;;40.47;27.35;;;26.80;99.90;;;;;;5072939;28;20025;-65
2022/06/17 01:43:56;;;;;;;39.47;28.98;;;26.90;99.90;;;;;;5074442;28;20446;-65
2022/06/17 01:46:37;;;;;;;44.50;30.88;;;26.90;99.90;;;;;;5094152;28;20020;-65
2022/06/17 01:49:09;;;;;;;35.00;25.30;;;27.00;99.90;;;;;;5094732;28;20035;-65
2022/06/17 01:51:40;;;;;;;33.67;22.77;;;27.00;99.90;;;;;;5075265;28;20028;-65
2022/06/17 01:54:12;;;;;;;33.83;21.00;;;27.10;99.90;;;;;;5073791;28;20593;-64
2022/06/17 01:56:41;;;;;;;24.63;19.77;;;27.00;99.90;;;;;;5076967;28;20025;-65
2022/06/17 01:59:17;;;;;;;30.70;18.95;;;27.10;99.90;;;;;;5074377;28;20064;-66
2022/06/17 02:01:48;;;;;;;29.98;20.33;;;27.10;99.90;;;;;;5058644;28;20028;-65
2022/06/17 02:04:21;;;;;;;30.27;19.55;;;27.20;99.90;;;;;;5074169;28;20032;-65
2022/06/17 02:06:56;;;;;;;33.10;21.65;;;27.30;99.90;;;;;;5074724;28;20078;-65
2022/06/17 02:09:23;;;;;;;36.92;23.52;;;27.40;99.90;;;;;;5063340;28;20028;-64
2022/06/17 02:11:50;;;;;;;37.00;23.23;;;27.40;99.90;;;;;;5073150;28;20028;-65
2022/06/17 02:14:17;;;;;;;32.45;22.48;;;27.40;99.90;;;;;;5073331;28;20479;-66
2022/06/17 02:16:49;;;;;;;32.38;20.90;;;27.40;99.90;;;;;;5073359;28;20035;-65
2022/06/17 02:19:16;;;;;;;39.90;27.45;;;27.50;99.90;;;;;;5073171;28;20440;-65
2022/06/17 02:21:54;;;;;;;50.10;32.65;;;27.50;99.90;;;;;;5074382;28;20055;-65
2022/06/17 02:24:21;;;;;;;52.78;31.83;;;27.50;99.90;;;;;;5073912;28;20100;-66
2022/06/17 02:26:49;;;;;;;52.00;29.60;;;27.50;99.90;;;;;;5094519;28;20448;-66
2022/06/17 02:29:17;;;;;;;58.58;33.25;;;27.60;99.90;;;;;;5076790;28;20029;-64
2022/06/17 02:31:45;;;;;;;53.55;32.10;;;27.60;99.90;;;;;;5070287;28;20127;-65
2022/06/17 02:34:15;;;;;;;61.85;35.78;;;27.60;99.90;;;;;;5069678;28;20020;-65
2022/06/17 02:36:51;;;;;;;65.03;40.95;;;27.70;99.90;;;;;;5071063;28;20024;-65
2022/06/17 02:39:18;;;;;;;77.15;45.08;;;27.80;99.90;;;;;;5071444;28;20033;-65
2022/06/17 02:41:47;;;;;;;72.53;42.63;;;27.80;99.90;;;;;;5069788;28;20036;-65
2022/06/17 02:44:21;;;;;;;77.05;43.47;;;27.90;99.90;;;;;;5069448;28;20063;-65
2022/06/17 02:46:51;;;;;;;71.65;42.03;;;28.00;99.90;;;;;;5068545;28;20031;-66
2022/06/17 02:49:29;;;;;;;69.70;43.85;;;28.00;99.90;;;;;;5069871;28;20027;-65
2022/06/17 02:51:57;;;;;;;90.60;49.00;;;28.00;99.90;;;;;;5065901;28;20154;-65
2022/06/17 02:54:32;;;;;;;78.28;47.78;;;28.00;99.90;;;;;;5067210;28;20020;-64
2022/06/17 02:57:02;;;;;;;66.78;42.92;;;28.20;99.90;;;;;;5077974;28;20127;-64
2022/06/17 02:59:36;;;;;;;74.03;44.03;;;28.20;99.90;;;;;;5081398;28;20151;-64
2022/06/17 03:02:11;;;;;;;89.93;50.72;;;28.30;99.90;;;;;;5079719;28;20024;-63
2022/06/17 03:04:39;;;;;;;74.00;48.33;;;28.30;99.90;;;;;;5081994;28;20032;-65
2022/06/17 03:07:14;;;;;;;73.13;47.97;;;28.40;99.90;;;;;;5081666;28;20052;-64
2022/06/17 03:09:41;;;;;;;78.50;50.88;;;28.40;99.90;;;;;;5075384;28;20027;-64
2022/06/17 03:12:13;;;;;;;65.00;44.67;;;28.40;99.90;;;;;;5070448;28;20119;-65
2022/06/17 03:14:47;;;;;;;58.38;40.53;;;28.50;99.90;;;;;;5073733;28;20029;-64
2022/06/17 03:17:17;;;;;;;50.65;34.22;;;28.60;99.90;;;;;;5080586;28;20070;-64
2022/06/17 03:19:46;;;;;;;57.38;35.97;;;28.70;99.90;;;;;;5070907;28;20086;-63
2022/06/17 03:22:13;;;;;;;57.20;39.67;;;28.70;99.90;;;;;;5075790;28;20052;-64
2022/06/17 03:24:43;;;;;;;63.53;39.55;;;28.80;99.90;;;;;;5076280;28;20008;-64
2022/06/17 03:27:25;;;;;;;50.80;33.05;;;28.80;99.90;;;;;;5072063;28;20028;-62
2022/06/17 03:29:55;;;;;;;55.60;35.33;;;28.80;99.90;;;;;;5069243;28;20107;-63
2022/06/17 03:32:30;;;;;;;56.85;37.13;;;28.80;99.90;;;;;;5071192;28;20039;-62
2022/06/17 03:34:57;;;;;;;64.35;37.88;;;28.90;99.90;;;;;;5071592;28;20044;-65
2022/06/17 03:37:35;;;;;;;51.53;34.85;;;29.00;99.90;;;;;;5070714;28;20020;-63
2022/06/17 03:40:07;;;;;;;57.05;36.17;;;29.00;99.90;;;;;;5071526;28;20031;-64
2022/06/17 03:42:47;;;;;;;53.83;35.72;;;29.10;99.90;;;;;;5072041;28;20012;-63
2022/06/17 03:45:22;;;;;;;64.05;33.45;;;29.10;99.90;;;;;;5070470;28;20078;-65
2022/06/17 03:47:54;;;;;;;56.05;33.35;;;29.20;99.90;;;;;;5070545;28;20059;-64
2022/06/17 03:50:32;;;;;;;43.72;31.40;;;29.20;99.90;;;;;;5070989;28;20046;-64
2022/06/17 03:53:22;;;;;;;53.95;31.27;;;29.20;99.90;;;;;;5071608;28;20025;-65
2022/06/17 03:55:50;;;;;;;47.40;28.33;;;29.20;99.90;;;;;;5065131;28;20127;-64
2022/06/17 03:58:19;;;;;;;44.55;27.80;;;29.10;99.90;;;;;;5069168;28;20020;-63
2022/06/17 04:01:14;;;;;;;44.15;27.92;;;29.20;99.90;;;;;;5062991;28;20375;-63
2022/06/17 04:03:46;;;;;;;48.88;27.70;;;29.20;99.90;;;;;;5068347;28;20486;-63
2022/06/17 04:06:15;;;;;;;;;;;29.30;99.90;;;;;;5069585;28;20020;-66
2022/06/17 04:09:22;;;;;;;38.97;22.20;;;29.30;99.90;;;;;;5071785;28;19919;-66
2022/06/17 04:11:54;;;;;;;43.13;24.95;;;29.40;99.90;;;;;;5052700;28;20035;-66
2022/06/17 04:14:40;;;;;;;;;;;29.30;99.90;;;;;;5070716;28;20536;-65
2022/06/17 04:17:12;;;;;;;50.03;30.85;;;29.40;99.90;;;;;;5068240;28;19912;-65
2022/06/17 04:19:40;;;;;;;39.60;27.27;;;29.30;99.90;;;;;;5073784;28;20426;-64
2022/06/17 04:22:15;;;;;;;52.13;28.65;;;29.30;99.90;;;;;;5072024;28;20395;-64
2022/06/17 04:24:44;;;;;;;45.38;27.02;;;29.30;99.90;;;;;;5075314;28;20025;-64
2022/06/17 04:27:13;;;;;;;50.63;28.52;;;29.30;99.90;;;;;;5075445;28;20096;-64
2022/06/17 04:29:48;;;;;;;54.47;28.90;;;29.30;99.90;;;;;;5072736;28;20074;-65
2022/06/17 04:32:21;;;;;;;54.15;28.70;;;29.40;99.90;;;;;;5068272;28;20032;-63
2022/06/17 04:34:48;;;;;;;47.60;30.27;;;29.30;99.90;;;;;;5076192;28;20032;-66
2022/06/17 04:37:20;;;;;;;51.72;29.15;;;29.30;99.90;;;;;;5073949;28;20533;-65
2022/06/17 04:39:52;;;;;;;48.97;28.20;;;29.40;99.90;;;;;;5076813;28;20028;-66
2022/06/17 04:42:33;;;;;;;51.13;27.15;;;29.40;99.90;;;;;;5076643;28;20446;-65
2022/06/17 04:45:01;;;;;;;44.80;28.37;;;29.40;99.90;;;;;;5075316;28;20033;-65
2022/06/17 04:47:28;;;;;;;51.67;25.70;;;29.50;99.90;;;;;;5075642;28;20095;-65
2022/06/17 04:49:59;;;;;;;43.85;25.40;;;29.50;99.90;;;;;;5091329;28;20108;-63
2022/06/17 04:52:29;;;;;;;43.27;25.00;;;29.50;99.90;;;;;;5076243;28;20567;-64
2022/06/17 04:54:58;;;;;;;40.45;24.30;;;29.50;99.90;;;;;;5076115;28;20041;-67
2022/06/17 04:57:28;;;;;;;42.13;24.27;;;29.60;99.90;;;;;;5075173;28;20031;-67
2022/06/17 04:59:58;;;;;;;42.83;23.77;;;29.60;99.90;;;;;;5090575;28;20126;-66
2022/06/17 05:02:31;;;;;;;34.45;20.65;;;29.60;99.90;;;;;;5070958;28;20481;-68
2022/06/17 05:05:00;;;;;;;35.47;21.05;;;29.70;99.90;;;;;;5075037;28;20020;-65
2022/06/17 05:07:31;;;;;;;30.25;18.23;;;29.70;99.90;;;;;;5073953;28;20096;-65
2022/06/17 05:10:04;;;;;;;28.67;19.55;;;29.70;99.90;;;;;;5070455;28;20024;-65
2022/06/17 05:12:46;;;;;;;30.30;17.45;;;29.70;99.90;;;;;;5074178;28;20020;-66
2022/06/17 05:15:17;;;;;;;27.67;16.60;;;29.70;99.90;;;;;;5076334;28;20040;-65
2022/06/17 05:17:45;;;;;;;25.30;14.75;;;29.90;99.90;;;;;;5075470;28;20028;-64
2022/06/17 05:20:15;;;;;;;24.55;15.02;;;29.90;99.90;;;;;;5075615;28;20091;-65
2022/06/17 05:22:52;;;;;;;26.08;13.85;;;30.00;99.90;;;;;;5075472;28;20025;-66
2022/06/17 05:25:22;;;;;;;23.30;14.60;;;30.00;99.90;;;;;;5075331;28;20082;-66
2022/06/17 05:27:49;;;;;;;21.25;13.55;;;30.10;99.90;;;;;;5072220;28;20027;-65
2022/06/17 05:30:16;;;;;;;21.13;13.27;;;30.10;99.90;;;;;;5073838;28;20406;-66
2022/06/17 05:32:53;;;;;;;22.63;14.23;;;30.10;99.90;;;;;;5069206;28;20107;-66
2022/06/17 05:35:21;;;;;;;27.58;17.58;;;30.10;99.90;;;;;;5074820;28;20025;-65
2022/06/17 05:37:48;;;;;;;39.90;22.85;;;30.10;99.90;;;;;;5071456;28;20143;-64
2022/06/17 05:40:16;;;;;;;28.70;19.00;;;30.00;99.90;;;;;;5074751;28;20022;-65
2022/06/17 05:42:44;;;;;;;25.77;18.13;;;30.00;99.90;;;;;;5070473;28;20036;-65
2022/06/17 05:45:17;;;;;;;24.90;16.20;;;30.00;99.90;;;;;;5073211;28;20486;-65
2022/06/17 05:47:44;;;;;;;23.20;14.02;;;30.10;99.90;;;;;;5077092;28;20502;-66
2022/06/17 05:50:12;;;;;;;22.88;14.40;;;30.00;99.90;;;;;;5074034;28;20498;-66
2022/06/17 05:52:50;;;;;;;27.98;15.52;;;30.00;99.90;;;;;;5074270;28;20028;-63
2022/06/17 05:55:18;;;;;;;17.35;11.25;;;30.00;99.90;;;;;;5071923;28;20093;-64
2022/06/17 05:57:45;;;;;;;16.90;10.35;;;30.00;99.90;;;;;;5073801;28;20491;-65
2022/06/17 06:00:13;;;;;;;17.02;9.27;;;30.00;99.90;;;;;;5073857;28;20383;-66
2022/06/17 06:02:40;;;;;;;85.50;53.65;;;30.00;99.90;;;;;;5073730;28;20025;-65
2022/06/17 06:05:08;;;;;;;42.53;26.08;;;30.00;99.90;;;;;;5070257;28;20115;-66
2022/06/17 06:07:35;;;;;;;122.85;79.75;;;30.00;99.90;;;;;;5072346;28;20074;-66
2022/06/17 06:10:02;;;;;;;60.05;40.53;;;29.90;99.90;;;;;;5072861;28;20571;-66
2022/06/17 06:15:15;;;;;;;41.53;26.30;;;30.00;99.90;;;;;;5066868;28;20055;-65
2022/06/17 06:17:45;;;;;;;31.73;22.70;;;30.00;99.90;;;;;;5067419;28;20025;-64
2022/06/17 06:20:13;;;;;;;23.70;12.50;;;30.00;99.90;;;;;;5067420;28;20024;-67
2022/06/17 06:22:41;;;;;;;84.47;65.50;;;30.00;99.90;;;;;;5074385;28;20027;-63
2022/06/17 06:25:11;;;;;;;35.97;24.73;;;30.00;99.90;;;;;;5069249;28;20024;-66
2022/06/17 06:27:37;;;;;;;23.17;16.13;;;30.00;99.90;;;;;;5062067;28;20044;-66
2022/06/17 06:30:04;;;;;;;22.92;15.27;;;30.00;99.90;;;;;;5072871;28;20142;-66
2022/06/17 06:32:31;;;;;;;64.43;15.43;;;30.10;99.90;;;;;;5071386;28;20020;-65
2022/06/17 06:34:58;;;;;;;22.90;13.68;;;30.10;99.90;;;;;;5072038;28;20025;-66
2022/06/17 06:37:24;;;;;;;27.52;16.98;;;30.10;99.90;;;;;;5071742;28;20486;-64
2022/06/17 06:39:51;;;;;;;25.77;17.95;;;30.10;99.90;;;;;;5070812;28;20402;-65
2022/06/17 06:42:19;;;;;;;24.35;16.60;;;30.10;99.90;;;;;;5062634;28;20039;-64
2022/06/17 06:44:45;;;;;;;24.15;17.05;;;30.10;99.90;;;;;;5071890;28;20029;-65
2022/06/17 06:47:12;;;;;;;22.67;15.98;;;30.10;99.90;;;;;;5072821;28;20035;-67
2022/06/17 06:49:39;;;;;;;19.83;15.00;;;30.10;99.90;;;;;;5068617;28;20037;-67
2022/06/17 06:52:06;;;;;;;18.17;13.90;;;30.10;99.90;;;;;;5069927;28;20077;-67
2022/06/17 06:54:32;;;;;;;125.43;92.97;;;30.10;99.90;;;;;;5070179;28;20031;-65
2022/06/17 06:57:00;;;;;;;31.10;19.05;;;30.20;99.90;;;;;;5073408;28;20052;-65
2022/06/17 06:59:27;;;;;;;30.55;20.00;;;30.20;99.90;;;;;;5072763;28;20431;-69
2022/06/17 07:01:53;;;;;;;29.17;20.75;;;30.20;99.90;;;;;;5073497;28;20471;-65
2022/06/17 07:04:21;;;;;;;18.75;13.57;;;30.30;99.90;;;;;;5073365;28;20023;-65
2022/06/17 07:06:47;;;;;;;14.13;10.23;;;30.30;99.90;;;;;;5072740;28;20398;-65
2022/06/17 07:09:15;;;;;;;13.68;11.00;;;30.30;99.90;;;;;;5072922;28;20028;-65
2022/06/17 07:11:41;;;;;;;17.30;13.27;;;30.20;99.90;;;;;;5062134;28;20028;-65
2022/06/17 07:14:08;;;;;;;25.20;13.95;;;30.20;99.90;;;;;;5072269;28;20028;-65
2022/06/17 07:16:34;;;;;;;18.90;14.68;;;30.30;99.90;;;;;;5072981;28;20103;-65
2022/06/17 07:19:07;;;;;;;20.10;14.73;;;30.30;99.90;;;;;;5072333;28;20032;-63
2022/06/17 07:21:34;;;;;;;23.52;15.35;;;30.30;99.90;;;;;;5068617;28;20394;-64
2022/06/17 07:24:01;;;;;;;18.88;12.90;;;30.20;99.90;;;;;;5073719;28;20024;-65
2022/06/17 07:26:28;;;;;;;25.63;15.88;;;30.20;99.90;;;;;;5073322;28;20016;-64
2022/06/17 07:28:55;;;;;;;44.13;30.70;;;30.20;99.90;;;;;;5072698;28;20016;-65
2022/06/17 07:31:22;;;;;;;16.30;11.70;;;30.20;99.90;;;;;;5065420;28;20494;-65
2022/06/17 07:33:50;;;;;;;16.15;12.20;;;30.20;99.90;;;;;;5073229;28;20036;-64
2022/06/17 07:41:57;;;;;;;19.08;6.25;;;30.20;99.90;;;;;;5075336;28;20032;-64
2022/06/17 07:44:24;;;;;;;8.40;4.60;;;30.20;99.90;;;;;;5073168;28;20029;-63
2022/06/17 07:46:50;;;;;;;11.77;8.15;;;30.20;99.90;;;;;;5067746;28;20109;-63
2022/06/17 07:49:17;;;;;;;6.43;4.63;;;30.30;99.90;;;;;;5072645;28;20158;-64
2022/06/17 07:51:44;;;;;;;7.28;5.95;;;30.40;99.90;;;;;;5075634;28;20033;-64
2022/06/17 07:54:11;;;;;;;10.48;5.18;;;30.50;99.90;;;;;;5064014;28;20479;-64
2022/06/17 07:56:37;;;;;;;7.32;4.05;;;30.50;99.90;;;;;;5076289;28;20086;-63
2022/06/17 07:59:04;;;;;;;5.18;4.03;;;30.40;99.90;;;;;;5075927;28;20020;-64
2022/06/17 08:01:31;;;;;;;11.63;3.75;;;30.40;99.90;;;;;;5077215;28;20078;-65
2022/06/17 08:03:57;;;;;;;7.88;4.03;;;30.40;99.90;;;;;;5070223;28;20071;-65
2022/06/17 08:06:24;;;;;;;8.45;4.20;;;30.50;99.90;;;;;;5068558;28;20029;-66
2022/06/17 08:08:51;;;;;;;14.23;4.47;;;30.50;99.90;;;;;;5072215;28;20035;-65
2022/06/17 08:11:17;;;;;;;8.48;5.45;;;30.60;99.90;;;;;;5067967;28;20090;-65
2022/06/17 08:13:44;;;;;;;10.77;5.57;;;30.60;99.90;;;;;;5070784;28;20028;-66
2022/06/17 08:16:13;;;;;;;6.18;3.38;;;30.70;99.90;;;;;;5066852;28;20017;-65
2022/06/17 08:18:41;;;;;;;7.60;3.53;;;30.80;99.90;;;;;;5070673;28;20379;-64
2022/06/17 08:21:09;;;;;;;7.10;3.70;;;30.80;99.90;;;;;;5069495;28;20036;-64
2022/06/17 08:23:36;;;;;;;6.45;4.30;;;30.90;99.90;;;;;;5074844;28;20486;-66
2022/06/17 08:26:03;;;;;;;7.50;4.30;;;31.00;99.90;;;;;;5075613;28;20040;-66
2022/06/17 08:28:30;;;;;;;6.38;3.95;;;31.00;99.90;;;;;;5071894;28;20170;-67
2022/06/17 08:30:57;;;;;;;118.50;88.93;;;31.00;99.90;;;;;;5069338;28;20048;-63
2022/06/17 08:33:30;;;;;;;30.10;20.25;;;31.00;99.90;;;;;;5075902;28;20036;-63
2022/06/17 08:36:06;;;;;;;24.05;14.75;;;31.00;99.90;;;;;;5070979;28;20108;-63
2022/06/17 08:38:35;;;;;;;16.35;12.35;;;30.90;99.90;;;;;;5070171;28;20402;-63
2022/06/17 08:41:33;;;;;;;7.90;5.15;;;30.80;99.80;;;;;;5068098;28;20095;-63
2022/06/17 08:44:20;;;;;;;3.35;2.22;;;30.80;99.90;;;;;;5039059;28;20036;-64
2022/06/17 08:47:08;;;;;;;6.00;2.33;;;30.90;99.80;;;;;;5065316;28;20028;-65
2022/06/17 08:49:55;;;;;;;5.30;2.70;;;31.00;99.10;;;;;;5069399;28;20040;-64
2022/06/17 08:52:29;;;;;;;5.93;3.85;;;31.00;98.80;;;;;;5073556;28;20025;-63
2022/06/17 08:55:05;;;;;;;11.05;5.32;;;31.10;99.50;;;;;;5064723;28;20036;-63
2022/06/17 08:57:53;;;;;;;9.75;4.00;;;31.10;99.80;;;;;;5067450;28;20170;-65
2022/06/17 09:00:25;;;;;;;6.55;4.35;;;31.00;99.30;;;;;;5064400;28;20037;-64
2022/06/17 09:03:02;;;;;;;6.88;3.08;;;31.00;99.40;;;;;;5074981;28;20029;-64
2022/06/17 09:05:56;;;;;;;105.53;78.85;;;31.10;99.90;;;;;;5068609;28;20382;-65
2022/06/17 09:08:33;;;;;;;17.27;10.45;;;31.00;99.90;;;;;;5071494;28;20426;-65
2022/06/17 09:11:18;;;;;;;10.90;5.97;;;30.90;99.90;;;;;;5069688;28;20099;-64
2022/06/17 09:14:27;;;;;;;15.15;9.35;;;30.90;99.90;;;;;;5066207;28;20028;-63
2022/06/17 09:17:14;;;;;;;7.35;4.28;;;30.90;99.90;;;;;;5073694;28;20039;-63
2022/06/17 09:19:45;;;;;;;6.70;2.78;;;30.90;99.90;;;;;;5071917;28;20021;-64
2022/06/17 09:22:25;;;;;;;8.07;4.10;;;30.90;99.50;;;;;;5071493;28;20031;-64
2022/06/17 09:24:54;;;;;;;12.88;6.40;;;30.90;99.90;;;;;;5069397;28;20021;-64
2022/06/17 09:27:23;;;;;;;13.35;4.63;;;30.90;99.70;;;;;;5072521;28;20443;-65
2022/06/17 09:29:54;;;;;;;11.95;6.38;;;30.90;99.90;;;;;;5074665;28;20123;-65
2022/06/17 09:32:29;;;;;;;8.05;3.00;;;30.80;99.20;;;;;;5075653;28;20088;-65
2022/06/17 09:35:04;;;;;;;7.68;4.47;;;30.80;99.30;;;;;;5075280;28;20032;-64
2022/06/17 09:37:56;;;;;;;13.70;7.07;;;30.60;98.90;;;;;;5074643;28;20021;-64
2022/06/17 09:40:34;;;;;;;13.13;6.17;;;30.50;99.10;;;;;;5068125;28;20143;-66
2022/06/17 09:43:16;;;;;;;16.55;6.00;;;30.40;99.90;;;;;;5074418;28;20126;-65
2022/06/17 09:46:03;;;;;;;14.77;7.87;;;30.50;99.90;;;;;;5074900;28;20031;-65
2022/06/17 09:48:45;;;;;;;21.25;13.75;;;30.50;99.90;;;;;;5066840;28;20139;-66
2022/06/17 09:51:16;;;;;;;51.58;42.30;;;30.50;99.20;;;;;;5074801;28;20041;-65
2022/06/17 09:53:44;;;;;;;32.72;25.17;;;30.40;99.20;;;;;;5074515;28;20032;-64
2022/06/17 09:56:15;;;;;;;62.30;15.73;;;30.30;99.00;;;;;;5074626;28;20025;-65
2022/06/17 09:58:56;;;;;;;203.02;21.80;;;30.30;99.90;;;;;;5073694;28;20027;-64
2022/06/17 10:01:23;;;;;;;99.47;67.47;;;30.30;99.90;;;;;;5074518;28;20025;-65
2022/06/17 10:03:50;;;;;;;36.25;26.92;;;30.20;99.90;;;;;;5074599;28;20032;-65
2022/06/17 10:06:24;;;;;;;91.03;81.00;;;30.20;99.90;;;;;;5074627;28;20032;-65
2022/06/17 10:09:00;;;;;;;97.00;64.57;;;30.10;99.90;;;;;;5073634;28;20036;-65
2022/06/17 10:11:47;;;;;;;112.35;69.95;;;30.10;99.90;;;;;;5074463;28;20020;-66
2022/06/17 10:14:44;;;;;;;186.93;112.97;;;30.10;99.90;;;;;;5077415;28;20378;-65
2022/06/17 10:20:31;;;;;;;493.40;228.32;;;30.20;99.90;;;;;;5072390;28;20521;-64
2022/06/17 10:23:18;;;;;;;270.30;94.95;;;30.10;99.90;;;;;;5073223;28;20103;-65
2022/06/17 10:25:51;;;;;;;162.63;59.95;;;30.00;99.90;;;;;;5072738;28;20027;-64
2022/06/17 10:28:36;;;;;;;38.40;20.00;;;30.00;99.90;;;;;;5071855;28;20027;-66
2022/06/17 10:31:07;;;;;;;93.68;71.95;;;30.00;99.90;;;;;;5072712;28;20067;-66
2022/06/17 10:33:36;;;;;;;43.85;26.55;;;29.90;99.90;;;;;;5070547;28;20033;-64
2022/06/17 10:36:05;;;;;;;20.58;11.75;;;29.90;99.90;;;;;;5072368;28;20083;-65
2022/06/17 10:38:37;;;;;;;18.55;9.68;;;30.00;99.90;;;;;;5072699;28;20024;-64
2022/06/17 10:41:05;;;;;;;15.63;10.13;;;30.00;99.90;;;;;;5072727;28;20026;-64
2022/06/17 10:43:39;;;;;;;26.63;15.77;;;29.90;99.90;;;;;;5072638;28;20028;-65
2022/06/17 10:46:14;;;;;;;38.58;21.92;;;30.00;99.90;;;;;;5072719;28;20048;-65
2022/06/17 10:48:42;;;;;;;32.58;17.88;;;29.90;99.90;;;;;;5071620;28;20021;-65
2022/06/17 10:51:09;;;;;;;24.58;17.52;;;29.90;99.90;;;;;;5072785;28;20028;-65
2022/06/17 10:53:49;;;;;;;34.72;20.48;;;29.90;99.90;;;;;;5072298;28;20558;-64
2022/06/17 10:56:25;;;;;;;37.88;22.30;;;29.90;99.90;;;;;;5072046;28;20037;-65
2022/06/17 10:59:13;;;;;;;32.30;20.08;;;29.90;99.90;;;;;;5070974;28;20050;-65
2022/06/17 11:01:50;;;;;;;35.05;22.42;;;29.80;99.90;;;;;;5069181;28;20033;-66
2022/06/17 11:04:25;;;;;;;37.05;23.15;;;29.70;99.90;;;;;;5065126;28;20025;-65
2022/06/17 11:07:16;;;;;;;33.33;21.98;;;29.70;99.90;;;;;;5067107;28;20440;-66
2022/06/17 11:09:52;;;;;;;35.20;22.63;;;29.70;99.90;;;;;;5072958;28;20020;-63
2022/06/17 11:12:30;;;;;;;61.63;34.10;;;29.70;99.90;;;;;;5073166;28;20024;-65
2022/06/17 11:15:04;;;;;;;51.97;30.20;;;29.80;99.90;;;;;;5072869;28;20071;-64
2022/06/17 11:17:41;;;;;;;48.83;29.43;;;29.80;99.90;;;;;;5067007;28;20033;-65
2022/06/17 11:20:24;;;;;;;58.95;40.90;;;29.80;99.90;;;;;;5064082;28;20307;-64
2022/06/17 11:22:57;;;;;;;72.88;49.20;;;29.80;99.90;;;;;;5060947;28;20105;-64
2022/06/17 11:25:25;;;;;;;72.28;50.85;;;29.80;99.90;;;;;;5067288;28;20044;-64
2022/06/17 11:28:14;;;;;;;68.70;46.70;;;29.80;99.90;;;;;;5069647;28;20052;-64
2022/06/17 11:30:51;;;;;;;104.72;61.30;;;29.80;99.90;;;;;;5072006;28;20044;-64
2022/06/17 11:33:26;;;;;;;91.25;55.58;;;29.80;99.90;;;;;;5066332;28;20094;-65
2022/06/17 11:36:13;;;;;;;79.35;46.13;;;29.80;99.90;;;;;;5068501;28;20032;-65
2022/06/17 11:38:40;;;;;;;74.28;43.72;;;29.80;99.90;;;;;;5073387;28;20078;-65
2022/06/17 11:41:50;;;;;;;63.67;39.95;;;29.80;99.90;;;;;;5072090;28;20030;-65
2022/06/17 11:44:18;;;;;;;67.65;36.90;;;29.80;99.90;;;;;;5069104;28;20514;-64
2022/06/17 11:46:54;;;;;;;61.88;34.25;;;29.70;99.90;;;;;;5073853;28;20027;-66
2022/06/17 11:49:21;;;;;;;73.88;40.47;;;29.70;99.90;;;;;;5071706;28;20051;-66
2022/06/17 11:51:55;;;;;;;88.07;47.13;;;29.70;99.90;;;;;;5074514;28;20047;-66
2022/06/17 11:54:25;;;;;;;81.95;47.67;;;29.60;99.90;;;;;;5062333;28;20387;-65
2022/06/17 11:56:54;;;;;;;82.05;45.20;;;29.60;99.90;;;;;;5093981;28;20020;-65
2022/06/17 11:59:27;;;;;;;91.55;53.28;;;29.60;99.90;;;;;;5073984;28;20029;-64
2022/06/17 12:01:54;;;;;;;136.88;63.90;;;29.50;99.90;;;;;;5070428;28;20021;-66
2022/06/17 12:04:26;;;;;;;127.85;64.60;;;29.50;99.90;;;;;;5070521;28;20028;-66
2022/06/17 12:06:55;;;;;;;147.60;74.50;;;29.50;99.90;;;;;;5071429;28;20044;-68
2022/06/17 12:09:32;;;;;;;151.70;76.55;;;29.50;99.90;;;;;;5072585;28;20090;-66
2022/06/17 12:12:03;;;;;;;172.10;79.72;;;29.50;99.90;;;;;;5066647;28;20028;-64
2022/06/17 12:14:39;;;;;;;189.02;92.18;;;29.50;99.90;;;;;;5068364;28;20032;-66
2022/06/17 12:17:12;;;;;;;221.50;101.00;;;29.50;99.90;;;;;;5069438;28;20020;-66
2022/06/17 12:19:39;;;;;;;240.50;119.10;;;29.50;99.90;;;;;;5069882;28;20507;-65
2022/06/17 12:22:13;;;;;;;242.68;117.28;;;29.40;99.90;;;;;;5069617;28;20028;-65
2022/06/17 12:24:50;;;;;;;229.25;114.68;;;29.30;99.90;;;;;;5066556;28;20025;-65
2022/06/17 12:27:21;;;;;;;213.20;110.35;;;29.30;99.90;;;;;;5068677;28;20027;-66
2022/06/17 12:29:51;;;;;;;210.18;106.53;;;29.40;99.90;;;;;;5071395;28;20025;-65
2022/06/17 12:32:26;;;;;;;233.10;115.78;;;29.30;99.90;;;;;;5069647;28;20032;-65
2022/06/17 12:34:53;;;;;;;234.20;112.22;;;29.10;99.90;;;;;;5067403;28;20028;-67
2022/06/17 12:37:25;;;;;;;224.02;108.90;;;29.10;99.90;;;;;;5073116;28;20380;-67
2022/06/17 12:40:00;;;;;;;220.02;102.45;;;29.10;99.90;;;;;;5064525;28;20029;-69
2022/06/17 12:42:44;;;;;;;214.20;92.13;;;29.10;99.90;;;;;;5069012;28;20036;-66
2022/06/17 12:45:16;;;;;;;173.48;78.72;;;29.10;99.90;;;;;;5073710;28;20032;-66
2022/06/17 12:47:49;;;;;;;142.98;72.72;;;29.10;99.90;;;;;;5076005;28;20031;-66
2022/06/17 12:55:33;;;;;;;49.53;27.95;;;29.10;99.90;;;;;;5069846;28;20035;-66
2022/06/17 12:58:05;;;;;;;39.50;23.42;;;29.10;99.90;;;;;;5075905;28;20025;-66
2022/06/17 13:00:34;;;;;;;34.97;18.05;;;29.10;99.90;;;;;;5073973;28;20031;-66
2022/06/17 13:03:03;;;;;;;30.92;17.38;;;29.00;99.90;;;;;;5068304;28;20108;-72
2022/06/17 13:05:41;;;;;;;30.48;16.20;;;29.00;99.90;;;;;;5070623;28;20425;-67
2022/06/17 13:08:12;;;;;;;28.35;17.98;;;29.00;99.90;;;;;;5072416;28;20028;-67
2022/06/17 13:10:44;;;;;;;31.38;17.83;;;29.10;99.90;;;;;;5070786;28;20032;-67
2022/06/17 13:13:13;;;;;;;27.08;15.32;;;29.00;99.90;;;;;;5068193;28;20032;-66
2022/06/17 13:15:53;;;;;;;30.65;15.80;;;29.00;99.90;;;;;;5065917;28;20028;-66